ASN logo
Last updated: 17 September 2019
Status:
Date:Wednesday 11 September 2019
Time:02:38
Type:Silhouette image of generic CVLP model; specific model in this crash may look slightly different
Convair CV-440F
Operator:private
Registration: N24DR
C/n / msn: 393
First flight: 1957
Engines: 2 Pratt & Whitney R-2800
Crew:Fatalities: 2 / Occupants: 2
Passengers:Fatalities: 0 / Occupants: 0
Total:Fatalities: 2 / Occupants: 2
Aircraft damage: Destroyed
Aircraft fate: Written off (damaged beyond repair)
Location:1 km (0.6 mls) ENE of Toledo-Express Airport, OH (TOL) (   United States of America)
Phase: Approach (APR)
Nature:Cargo
Departure airport:Millington-Memphis Airport, TN (NQA/KNQA), United States of America
Destination airport:Toledo-Express Airport, OH (TOL/KTOL), United States of America
Narrative:
A Convair CV-440 cargo plane crashed and caught fire near Toledo-Express Airport, Ohio, USA. The aircraft came down on the premises of a recovery and truck repair company, located 1 km short of runway 25.

Sources:
» WKYC
» WBAY

METAR Weather report:
05:52 UTC / 01:52 local time:
KTOL 110552Z 23005KT 10SM CLR 25/19 A3012 RMK AO2 SLP194 T02500194 10272 20250 51007

06:52 UTC / 02:52 local time:
KTOL 110652Z 23004KT 10SM CLR 24/19 A3013 RMK AO2 SLP196 T02440194


Photos

Add your photo of this accident or aircraft

Aircraft history
date registration operator remarks
24 Jan. 1957 OY-KPD SAS delivered
4 Nov. 1969 OY-KPD SAS last flight for SAS at 27627 flying hours
20 Nov. 1969 SE-CCV Linjeflyg bought
2 July 1973 SE-CCV Linjeflyg last flight for Linjeflyg at 34675 flying hours
July 1973 CF-GLM Great Lakes Airlines
29 June 1977 N24DR 393 Inc bought
1978 N24DR Airgo leased
Nov. 1978 N24DR Emissary Airways bought
18 Feb. 1982 N24DR N24DR Inc bought
2 April 1984 N24DR Brennan & Hargreaves Inc bought
August 1989 N24DR Amermex bought
August 1994 N24DR Integrity Aircraft Inc bought
December 1994 N24DR private ownership
4 April 2000 N24DR Ferreteria e Implementos San Francisco
26 May 2000 N24DR Ferreteria e Implementos San Francisco no.2 engine shut down after loss of manifold; engine repaired and reinstalled on 16 June 2000
17 June 2000 N24DR Ferreteria e Implementos San Francisco precautionary engine shut down due to high oil consumption
19 August 2019 N24DR private ownership

Map
This map shows the airport of departure and the intended destination of the flight. The line between the airports does not display the exact flight path.
Distance from Millington-Memphis Airport, TN to Toledo-Express Airport, OH as the crow flies is 865 km (540 miles).
Accident location: Approximate; accuracy within a few kilometers.

This information is not presented as the Flight Safety Foundation or the Aviation Safety Network’s opinion as to the cause of the accident. It is preliminary and is based on the facts as they are known at this time.
languages: languages

Share